sensor_id;sensor_type;location;lat;lon;timestamp;temperature;humidity
27896;DHT22;15241;48.374;10.876;2023-05-07T00:00:49;15.80;99.90
27896;DHT22;15241;48.374;10.876;2023-05-07T00:05:48;15.80;99.90
27896;DHT22;15241;48.374;10.876;2023-05-07T00:10:47;15.80;99.90
27896;DHT22;15241;48.374;10.876;2023-05-07T00:15:46;15.80;99.90
27896;DHT22;15241;48.374;10.876;2023-05-07T00:20:45;15.60;99.90
27896;DHT22;15241;48.374;10.876;2023-05-07T00:25:43;15.60;99.90
27896;DHT22;15241;48.374;10.876;2023-05-07T00:30:42;15.70;99.90
27896;DHT22;15241;48.374;10.876;2023-05-07T00:35:42;15.60;99.90
27896;DHT22;15241;48.374;10.876;2023-05-07T00:40:41;15.60;99.90
27896;DHT22;15241;48.374;10.876;2023-05-07T00:45:40;15.60;99.90
27896;DHT22;15241;48.374;10.876;2023-05-07T00:50:39;15.50;99.90
27896;DHT22;15241;48.374;10.876;2023-05-07T00:55:38;15.50;99.90
27896;DHT22;15241;48.374;10.876;2023-05-07T01:00:37;15.50;99.90
27896;DHT22;15241;48.374;10.876;2023-05-07T01:05:36;15.40;99.90
27896;DHT22;15241;48.374;10.876;2023-05-07T01:10:35;15.40;99.90
27896;DHT22;15241;48.374;10.876;2023-05-07T01:15:34;15.40;99.90
27896;DHT22;15241;48.374;10.876;2023-05-07T01:20:33;15.40;99.90
27896;DHT22;15241;48.374;10.876;2023-05-07T01:25:33;15.40;99.90
27896;DHT22;15241;48.374;10.876;2023-05-07T01:30:32;15.30;99.90
27896;DHT22;15241;48.374;10.876;2023-05-07T01:35:37;15.30;99.90
27896;DHT22;15241;48.374;10.876;2023-05-07T01:40:37;15.20;99.90
27896;DHT22;15241;48.374;10.876;2023-05-07T01:45:36;15.10;99.90
27896;DHT22;15241;48.374;10.876;2023-05-07T01:50:37;15.00;99.90
27896;DHT22;15241;48.374;10.876;2023-05-07T01:55:37;15.00;99.90
27896;DHT22;15241;48.374;10.876;2023-05-07T02:00:36;15.00;99.90
27896;DHT22;15241;48.374;10.876;2023-05-07T02:05:35;15.00;99.90
27896;DHT22;15241;48.374;10.876;2023-05-07T02:10:34;15.00;99.90
27896;DHT22;15241;48.374;10.876;2023-05-07T02:15:33;15.00;99.90
27896;DHT22;15241;48.374;10.876;2023-05-07T02:20:32;14.90;99.90
27896;DHT22;15241;48.374;10.876;2023-05-07T02:25:31;14.90;99.90
27896;DHT22;15241;48.374;10.876;2023-05-07T02:30:30;14.80;99.90
27896;DHT22;15241;48.374;10.876;2023-05-07T02:35:29;14.90;99.90
27896;DHT22;15241;48.374;10.876;2023-05-07T02:40:28;14.80;99.90
27896;DHT22;15241;48.374;10.876;2023-05-07T02:45:27;14.80;99.90
27896;DHT22;15241;48.374;10.876;2023-05-07T02:50:26;14.80;99.90
27896;DHT22;15241;48.374;10.876;2023-05-07T02:55:25;14.80;99.90
27896;DHT22;15241;48.374;10.876;2023-05-07T03:00:25;14.70;99.90
27896;DHT22;15241;48.374;10.876;2023-05-07T03:05:24;14.70;99.90
27896;DHT22;15241;48.374;10.876;2023-05-07T03:10:23;14.70;99.90
27896;DHT22;15241;48.374;10.876;2023-05-07T03:15:22;14.60;99.90
27896;DHT22;15241;48.374;10.876;2023-05-07T03:20:21;14.60;99.90
27896;DHT22;15241;48.374;10.876;2023-05-07T03:25:20;14.60;99.90
27896;DHT22;15241;48.374;10.876;2023-05-07T03:30:19;14.60;99.90
27896;DHT22;15241;48.374;10.876;2023-05-07T03:35:18;14.60;99.90
27896;DHT22;15241;48.374;10.876;2023-05-07T03:40:18;14.50;99.90
27896;DHT22;15241;48.374;10.876;2023-05-07T03:45:18;14.60;99.90
27896;DHT22;15241;48.374;10.876;2023-05-07T03:50:17;14.50;99.90
27896;DHT22;15241;48.374;10.876;2023-05-07T03:55:16;14.50;99.90
27896;DHT22;15241;48.374;10.876;2023-05-07T04:00:16;14.30;99.90
27896;DHT22;15241;48.374;10.876;2023-05-07T04:05:15;14.30;99.90
27896;DHT22;15241;48.374;10.876;2023-05-07T04:10:13;14.30;99.90
27896;DHT22;15241;48.374;10.876;2023-05-07T04:15:13;14.20;99.90
27896;DHT22;15241;48.374;10.876;2023-05-07T04:20:15;14.20;99.90
27896;DHT22;15241;48.374;10.876;2023-05-07T04:25:15;14.20;99.90
27896;DHT22;15241;48.374;10.876;2023-05-07T04:30:15;14.20;99.90
27896;DHT22;15241;48.374;10.876;2023-05-07T04:35:14;14.20;99.90
27896;DHT22;15241;48.374;10.876;2023-05-07T04:40:14;14.20;99.90
27896;DHT22;15241;48.374;10.876;2023-05-07T04:45:13;14.30;99.90
27896;DHT22;15241;48.374;10.876;2023-05-07T04:50:12;14.30;99.90
27896;DHT22;15241;48.374;10.876;2023-05-07T04:55:11;14.30;99.90
27896;DHT22;15241;48.374;10.876;2023-05-07T05:00:12;14.30;99.90
27896;DHT22;15241;48.374;10.876;2023-05-07T05:05:11;14.40;99.90
27896;DHT22;15241;48.374;10.876;2023-05-07T05:10:10;14.50;99.90
27896;DHT22;15241;48.374;10.876;2023-05-07T05:15:12;14.60;99.90
27896;DHT22;15241;48.374;10.876;2023-05-07T05:20:12;14.70;99.90
27896;DHT22;15241;48.374;10.876;2023-05-07T05:25:11;14.80;99.90
27896;DHT22;15241;48.374;10.876;2023-05-07T05:30:12;14.90;99.90
27896;DHT22;15241;48.374;10.876;2023-05-07T05:35:11;15.00;99.90
27896;DHT22;15241;48.374;10.876;2023-05-07T05:40:12;15.20;99.90
27896;DHT22;15241;48.374;10.876;2023-05-07T05:45:11;15.30;99.90
27896;DHT22;15241;48.374;10.876;2023-05-07T05:50:11;15.40;99.90
27896;DHT22;15241;48.374;10.876;2023-05-07T05:55:10;15.60;99.90
27896;DHT22;15241;48.374;10.876;2023-05-07T06:00:11;15.70;99.90
27896;DHT22;15241;48.374;10.876;2023-05-07T06:05:10;15.90;99.90
27896;DHT22;15241;48.374;10.876;2023-05-07T06:10:10;16.10;99.90
27896;DHT22;15241;48.374;10.876;2023-05-07T06:15:10;16.30;99.90
27896;DHT22;15241;48.374;10.876;2023-05-07T06:20:10;16.40;99.90
27896;DHT22;15241;48.374;10.876;2023-05-07T06:25:10;16.60;99.90
27896;DHT22;15241;48.374;10.876;2023-05-07T06:30:10;16.80;99.90
27896;DHT22;15241;48.374;10.876;2023-05-07T06:35:10;17.00;99.90
27896;DHT22;15241;48.374;10.876;2023-05-07T06:40:11;17.10;99.90
27896;DHT22;15241;48.374;10.876;2023-05-07T06:45:11;17.20;99.90
27896;DHT22;15241;48.374;10.876;2023-05-07T06:50:11;17.40;99.90
27896;DHT22;15241;48.374;10.876;2023-05-07T06:55:10;17.60;99.90
27896;DHT22;15241;48.374;10.876;2023-05-07T07:00:12;17.70;99.90
27896;DHT22;15241;48.374;10.876;2023-05-07T07:05:11;17.80;99.90
27896;DHT22;15241;48.374;10.876;2023-05-07T07:10:10;17.90;99.90
27896;DHT22;15241;48.374;10.876;2023-05-07T07:15:11;18.10;99.90
27896;DHT22;15241;48.374;10.876;2023-05-07T07:20:11;18.20;99.90
27896;DHT22;15241;48.374;10.876;2023-05-07T07:25:10;18.30;99.90
27896;DHT22;15241;48.374;10.876;2023-05-07T07:30:10;18.40;99.90
27896;DHT22;15241;48.374;10.876;2023-05-07T07:35:10;18.60;99.90
27896;DHT22;15241;48.374;10.876;2023-05-07T07:40:11;18.80;99.90
27896;DHT22;15241;48.374;10.876;2023-05-07T07:45:11;19.00;99.90
27896;DHT22;15241;48.374;10.876;2023-05-07T07:50:11;19.20;99.90
27896;DHT22;15241;48.374;10.876;2023-05-07T07:55:10;19.30;99.90
27896;DHT22;15241;48.374;10.876;2023-05-07T08:00:11;19.50;99.90
27896;DHT22;15241;48.374;10.876;2023-05-07T08:05:10;19.70;99.90
27896;DHT22;15241;48.374;10.876;2023-05-07T08:10:10;19.90;99.90
27896;DHT22;15241;48.374;10.876;2023-05-07T08:15:11;20.20;99.90
27896;DHT22;15241;48.374;10.876;2023-05-07T08:20:11;20.40;99.90
27896;DHT22;15241;48.374;10.876;2023-05-07T08:25:10;20.70;99.90
27896;DHT22;15241;48.374;10.876;2023-05-07T08:30:12;21.00;99.90
27896;DHT22;15241;48.374;10.876;2023-05-07T08:35:11;21.30;99.90
27896;DHT22;15241;48.374;10.876;2023-05-07T08:40:11;21.50;99.90
27896;DHT22;15241;48.374;10.876;2023-05-07T08:45:11;21.90;99.90
27896;DHT22;15241;48.374;10.876;2023-05-07T08:50:11;22.20;99.90
27896;DHT22;15241;48.374;10.876;2023-05-07T08:55:11;22.50;99.90
27896;DHT22;15241;48.374;10.876;2023-05-07T09:00:13;22.90;99.90
27896;DHT22;15241;48.374;10.876;2023-05-07T09:05:12;23.20;99.90
27896;DHT22;15241;48.374;10.876;2023-05-07T09:10:13;23.50;99.90
27896;DHT22;15241;48.374;10.876;2023-05-07T09:15:12;23.70;99.90
27896;DHT22;15241;48.374;10.876;2023-05-07T09:20:13;24.00;99.90
27896;DHT22;15241;48.374;10.876;2023-05-07T09:25:12;24.30;99.90
27896;DHT22;15241;48.374;10.876;2023-05-07T09:30:13;24.50;99.90
27896;DHT22;15241;48.374;10.876;2023-05-07T09:35:17;24.70;99.90
27896;DHT22;15241;48.374;10.876;2023-05-07T09:40:26;25.00;99.90
27896;DHT22;15241;48.374;10.876;2023-05-07T09:45:26;25.40;99.90
27896;DHT22;15241;48.374;10.876;2023-05-07T09:50:28;25.70;99.90
27896;DHT22;15241;48.374;10.876;2023-05-07T09:55:27;25.90;99.90
27896;DHT22;15241;48.374;10.876;2023-05-07T10:00:28;26.20;99.90
27896;DHT22;15241;48.374;10.876;2023-05-07T10:05:27;26.30;99.90
27896;DHT22;15241;48.374;10.876;2023-05-07T10:10:27;26.60;99.90
27896;DHT22;15241;48.374;10.876;2023-05-07T10:15:29;27.00;99.60
27896;DHT22;15241;48.374;10.876;2023-05-07T10:20:28;27.30;99.90
27896;DHT22;15241;48.374;10.876;2023-05-07T10:25:29;27.50;98.40
27896;DHT22;15241;48.374;10.876;2023-05-07T10:30:32;27.40;97.60
27896;DHT22;15241;48.374;10.876;2023-05-07T10:35:36;28.00;98.40
27896;DHT22;15241;48.374;10.876;2023-05-07T10:40:32;28.00;96.10
27896;DHT22;15241;48.374;10.876;2023-05-07T10:45:32;28.10;93.50
27896;DHT22;15241;48.374;10.876;2023-05-07T10:50:31;28.30;94.40
27896;DHT22;15241;48.374;10.876;2023-05-07T10:55:30;28.40;94.00
27896;DHT22;15241;48.374;10.876;2023-05-07T11:00:44;28.50;93.80
27896;DHT22;15241;48.374;10.876;2023-05-07T11:05:43;28.40;92.20
27896;DHT22;15241;48.374;10.876;2023-05-07T11:10:53;28.60;93.20
27896;DHT22;15241;48.374;10.876;2023-05-07T11:15:52;29.00;92.30
27896;DHT22;15241;48.374;10.876;2023-05-07T11:20:56;29.20;91.80
27896;DHT22;15241;48.374;10.876;2023-05-07T11:26:00;29.60;91.40
27896;DHT22;15241;48.374;10.876;2023-05-07T11:30:59;29.90;90.80
27896;DHT22;15241;48.374;10.876;2023-05-07T11:35:58;29.60;90.00
27896;DHT22;15241;48.374;10.876;2023-05-07T11:40:59;30.00;91.00
27896;DHT22;15241;48.374;10.876;2023-05-07T11:46:05;30.00;87.10
27896;DHT22;15241;48.374;10.876;2023-05-07T11:51:05;30.20;88.00
27896;DHT22;15241;48.374;10.876;2023-05-07T11:56:08;30.30;86.80
27896;DHT22;15241;48.374;10.876;2023-05-07T12:01:09;30.50;87.10
27896;DHT22;15241;48.374;10.876;2023-05-07T12:06:09;30.60;86.10
27896;DHT22;15241;48.374;10.876;2023-05-07T12:11:09;30.80;86.10
27896;DHT22;15241;48.374;10.876;2023-05-07T12:16:08;31.00;85.20
27896;DHT22;15241;48.374;10.876;2023-05-07T12:21:08;31.10;86.00
27896;DHT22;15241;48.374;10.876;2023-05-07T12:26:07;31.20;84.70
27896;DHT22;15241;48.374;10.876;2023-05-07T12:31:07;31.40;86.20
27896;DHT22;15241;48.374;10.876;2023-05-07T12:36:08;31.20;84.90
27896;DHT22;15241;48.374;10.876;2023-05-07T12:41:08;31.20;84.90
27896;DHT22;15241;48.374;10.876;2023-05-07T12:46:08;31.20;85.00
27896;DHT22;15241;48.374;10.876;2023-05-07T12:51:07;31.20;85.00
27896;DHT22;15241;48.374;10.876;2023-05-07T12:56:07;31.00;84.40
27896;DHT22;15241;48.374;10.876;2023-05-07T13:01:07;31.20;84.20
27896;DHT22;15241;48.374;10.876;2023-05-07T13:06:08;31.30;85.10
27896;DHT22;15241;48.374;10.876;2023-05-07T13:11:09;31.10;83.20
27896;DHT22;15241;48.374;10.876;2023-05-07T13:16:09;30.90;82.60
27896;DHT22;15241;48.374;10.876;2023-05-07T13:21:09;31.00;84.00
27896;DHT22;15241;48.374;10.876;2023-05-07T13:26:08;31.00;85.30
27896;DHT22;15241;48.374;10.876;2023-05-07T13:31:07;30.80;84.40
27896;DHT22;15241;48.374;10.876;2023-05-07T13:36:07;30.70;84.00
27896;DHT22;15241;48.374;10.876;2023-05-07T13:41:06;30.50;85.90
27896;DHT22;15241;48.374;10.876;2023-05-07T13:46:05;30.80;85.60
27896;DHT22;15241;48.374;10.876;2023-05-07T13:56:11;30.60;85.30
27896;DHT22;15241;48.374;10.876;2023-05-07T14:01:10;30.50;85.00
27896;DHT22;15241;48.374;10.876;2023-05-07T14:06:09;30.20;86.00
27896;DHT22;15241;48.374;10.876;2023-05-07T14:11:09;30.20;84.90
27896;DHT22;15241;48.374;10.876;2023-05-07T14:16:08;30.10;85.90
27896;DHT22;15241;48.374;10.876;2023-05-07T14:21:07;29.60;86.10
27896;DHT22;15241;48.374;10.876;2023-05-07T14:26:06;29.60;86.30
27896;DHT22;15241;48.374;10.876;2023-05-07T14:31:05;29.40;85.20
27896;DHT22;15241;48.374;10.876;2023-05-07T14:36:05;29.40;86.70
27896;DHT22;15241;48.374;10.876;2023-05-07T14:41:04;29.30;87.20
27896;DHT22;15241;48.374;10.876;2023-05-07T14:46:03;29.00;86.50
27896;DHT22;15241;48.374;10.876;2023-05-07T14:51:02;28.80;85.50
27896;DHT22;15241;48.374;10.876;2023-05-07T14:56:01;28.50;87.50
27896;DHT22;15241;48.374;10.876;2023-05-07T15:01:00;28.30;88.30
27896;DHT22;15241;48.374;10.876;2023-05-07T15:05:59;28.10;88.00
27896;DHT22;15241;48.374;10.876;2023-05-07T15:10:58;28.00;88.40
27896;DHT22;15241;48.374;10.876;2023-05-07T15:15:57;27.90;88.60
27896;DHT22;15241;48.374;10.876;2023-05-07T15:20:57;27.80;88.50
27896;DHT22;15241;48.374;10.876;2023-05-07T15:25:56;27.30;88.70
27896;DHT22;15241;48.374;10.876;2023-05-07T15:30:55;27.20;89.60
27896;DHT22;15241;48.374;10.876;2023-05-07T15:35:54;26.90;89.70
27896;DHT22;15241;48.374;10.876;2023-05-07T15:40:53;26.70;89.70
27896;DHT22;15241;48.374;10.876;2023-05-07T15:45:52;26.50;90.40
27896;DHT22;15241;48.374;10.876;2023-05-07T15:50:51;26.20;90.40
27896;DHT22;15241;48.374;10.876;2023-05-07T15:55:49;25.90;90.50
27896;DHT22;15241;48.374;10.876;2023-05-07T16:00:48;25.70;90.60
27896;DHT22;15241;48.374;10.876;2023-05-07T16:05:47;25.40;91.30
27896;DHT22;15241;48.374;10.876;2023-05-07T16:10:46;25.10;91.10
27896;DHT22;15241;48.374;10.876;2023-05-07T16:15:45;24.80;91.30
27896;DHT22;15241;48.374;10.876;2023-05-07T16:20:46;24.40;91.80
27896;DHT22;15241;48.374;10.876;2023-05-07T16:25:44;24.30;92.30
27896;DHT22;15241;48.374;10.876;2023-05-07T16:30:44;24.10;93.00
27896;DHT22;15241;48.374;10.876;2023-05-07T16:35:42;24.10;93.30
27896;DHT22;15241;48.374;10.876;2023-05-07T16:40:41;23.70;93.60
27896;DHT22;15241;48.374;10.876;2023-05-07T16:45:40;23.70;93.80
27896;DHT22;15241;48.374;10.876;2023-05-07T16:50:39;23.60;94.00
27896;DHT22;15241;48.374;10.876;2023-05-07T16:55:38;23.40;94.20
27896;DHT22;15241;48.374;10.876;2023-05-07T17:00:38;23.30;94.50
27896;DHT22;15241;48.374;10.876;2023-05-07T17:05:37;23.20;95.10
27896;DHT22;15241;48.374;10.876;2023-05-07T17:10:36;23.10;95.20
27896;DHT22;15241;48.374;10.876;2023-05-07T17:15:35;22.90;95.50
27896;DHT22;15241;48.374;10.876;2023-05-07T17:20:34;22.90;96.00
27896;DHT22;15241;48.374;10.876;2023-05-07T17:25:34;22.80;96.70
27896;DHT22;15241;48.374;10.876;2023-05-07T17:30:33;22.70;96.50
27896;DHT22;15241;48.374;10.876;2023-05-07T17:35:32;22.60;96.90
27896;DHT22;15241;48.374;10.876;2023-05-07T17:40:32;22.40;97.40
27896;DHT22;15241;48.374;10.876;2023-05-07T17:45:32;22.40;97.50
27896;DHT22;15241;48.374;10.876;2023-05-07T17:50:32;22.30;97.70
27896;DHT22;15241;48.374;10.876;2023-05-07T17:55:32;22.20;98.20
27896;DHT22;15241;48.374;10.876;2023-05-07T18:00:31;22.10;98.20
27896;DHT22;15241;48.374;10.876;2023-05-07T18:05:30;21.90;98.20
27896;DHT22;15241;48.374;10.876;2023-05-07T18:10:29;21.90;98.70
27896;DHT22;15241;48.374;10.876;2023-05-07T18:15:28;21.90;98.90
27896;DHT22;15241;48.374;10.876;2023-05-07T18:20:27;21.80;99.10
27896;DHT22;15241;48.374;10.876;2023-05-07T18:25:26;21.70;99.10
27896;DHT22;15241;48.374;10.876;2023-05-07T18:30:25;21.70;99.70
27896;DHT22;15241;48.374;10.876;2023-05-07T18:35:24;21.50;99.30
27896;DHT22;15241;48.374;10.876;2023-05-07T18:40:23;21.50;99.70
27896;DHT22;15241;48.374;10.876;2023-05-07T18:45:22;21.40;99.90
27896;DHT22;15241;48.374;10.876;2023-05-07T18:50:21;21.40;99.90
27896;DHT22;15241;48.374;10.876;2023-05-07T18:55:20;21.30;99.90
27896;DHT22;15241;48.374;10.876;2023-05-07T19:00:20;21.10;99.90
27896;DHT22;15241;48.374;10.876;2023-05-07T19:05:19;21.00;99.90
27896;DHT22;15241;48.374;10.876;2023-05-07T19:10:18;20.70;99.90
27896;DHT22;15241;48.374;10.876;2023-05-07T19:15:17;20.70;99.90
27896;DHT22;15241;48.374;10.876;2023-05-07T19:20:16;20.50;99.90
27896;DHT22;15241;48.374;10.876;2023-05-07T19:25:15;20.40;99.90
27896;DHT22;15241;48.374;10.876;2023-05-07T19:30:14;20.20;99.90
27896;DHT22;15241;48.374;10.876;2023-05-07T19:35:13;20.10;99.90
27896;DHT22;15241;48.374;10.876;2023-05-07T19:40:13;20.00;99.90
27896;DHT22;15241;48.374;10.876;2023-05-07T19:45:14;19.90;99.90
27896;DHT22;15241;48.374;10.876;2023-05-07T19:50:13;19.60;99.90
27896;DHT22;15241;48.374;10.876;2023-05-07T19:55:12;19.50;99.90
27896;DHT22;15241;48.374;10.876;2023-05-07T20:00:13;19.30;99.90
27896;DHT22;15241;48.374;10.876;2023-05-07T20:05:12;19.10;99.90
27896;DHT22;15241;48.374;10.876;2023-05-07T20:10:11;18.90;99.90
27896;DHT22;15241;48.374;10.876;2023-05-07T20:15:11;18.80;99.90
27896;DHT22;15241;48.374;10.876;2023-05-07T20:20:12;18.80;99.90
27896;DHT22;15241;48.374;10.876;2023-05-07T20:25:11;18.70;99.90
27896;DHT22;15241;48.374;10.876;2023-05-07T20:30:12;18.60;99.90
27896;DHT22;15241;48.374;10.876;2023-05-07T20:35:11;18.50;99.90
27896;DHT22;15241;48.374;10.876;2023-05-07T20:40:12;18.50;99.90
27896;DHT22;15241;48.374;10.876;2023-05-07T20:45:12;18.40;99.90
27896;DHT22;15241;48.374;10.876;2023-05-07T20:50:11;18.40;99.90
27896;DHT22;15241;48.374;10.876;2023-05-07T20:55:10;18.30;99.90
27896;DHT22;15241;48.374;10.876;2023-05-07T21:00:11;18.30;99.90
27896;DHT22;15241;48.374;10.876;2023-05-07T21:05:10;18.30;99.90
27896;DHT22;15241;48.374;10.876;2023-05-07T21:10:10;18.30;99.90
27896;DHT22;15241;48.374;10.876;2023-05-07T21:15:11;18.20;99.90
27896;DHT22;15241;48.374;10.876;2023-05-07T21:20:12;18.10;99.90
27896;DHT22;15241;48.374;10.876;2023-05-07T21:25:10;18.10;99.90
27896;DHT22;15241;48.374;10.876;2023-05-07T21:30:12;18.10;99.90
27896;DHT22;15241;48.374;10.876;2023-05-07T21:35:12;18.10;99.90
27896;DHT22;15241;48.374;10.876;2023-05-07T21:40:13;18.00;99.90
27896;DHT22;15241;48.374;10.876;2023-05-07T21:45:13;18.00;99.90
27896;DHT22;15241;48.374;10.876;2023-05-07T21:50:12;17.80;99.90
27896;DHT22;15241;48.374;10.876;2023-05-07T21:55:11;17.90;99.90
27896;DHT22;15241;48.374;10.876;2023-05-07T22:00:12;17.80;99.90
27896;DHT22;15241;48.374;10.876;2023-05-07T22:05:11;17.80;99.90
27896;DHT22;15241;48.374;10.876;2023-05-07T22:10:10;17.80;99.90
27896;DHT22;15241;48.374;10.876;2023-05-07T22:15:10;17.70;99.90
27896;DHT22;15241;48.374;10.876;2023-05-07T22:20:11;17.70;99.90
27896;DHT22;15241;48.374;10.876;2023-05-07T22:25:12;17.60;99.90
27896;DHT22;15241;48.374;10.876;2023-05-07T22:30:12;17.60;99.90
27896;DHT22;15241;48.374;10.876;2023-05-07T22:35:11;17.60;99.90
27896;DHT22;15241;48.374;10.876;2023-05-07T22:40:11;17.60;99.90
27896;DHT22;15241;48.374;10.876;2023-05-07T22:45:11;17.60;99.90
27896;DHT22;15241;48.374;10.876;2023-05-07T22:50:11;17.50;99.90
27896;DHT22;15241;48.374;10.876;2023-05-07T22:55:10;17.40;99.90
27896;DHT22;15241;48.374;10.876;2023-05-07T23:00:11;17.40;99.90
27896;DHT22;15241;48.374;10.876;2023-05-07T23:05:10;17.40;99.90
27896;DHT22;15241;48.374;10.876;2023-05-07T23:10:10;17.30;99.90
27896;DHT22;15241;48.374;10.876;2023-05-07T23:15:10;17.30;99.90
27896;DHT22;15241;48.374;10.876;2023-05-07T23:20:11;17.20;99.90
27896;DHT22;15241;48.374;10.876;2023-05-07T23:25:11;17.20;99.90
27896;DHT22;15241;48.374;10.876;2023-05-07T23:30:12;17.30;99.90
27896;DHT22;15241;48.374;10.876;2023-05-07T23:35:11;17.20;99.90
27896;DHT22;15241;48.374;10.876;2023-05-07T23:40:11;17.20;99.90
27896;DHT22;15241;48.374;10.876;2023-05-07T23:45:11;17.20;99.90
27896;DHT22;15241;48.374;10.876;2023-05-07T23:50:10;17.20;99.90
27896;DHT22;15241;48.374;10.876;2023-05-07T23:55:10;17.20;99.90
